Time;durP1;ratioP1;P1;durP2;ratioP2;P2;SDS_P1;SDS_P2;PMS_P1;PMS_P2;Temp;Humidity;BMP_temperature;BMP_pressure;BME280_temperature;BME280_humidity;BME280_pressure;Samples;Min_cycle;Max_cycle;Signal;HPM_P1;HPM_P2
2023/07/08 00:00:25;;;;;;;11.95;5.95;;;;;;;-145.69;41.38;51862.19;5075244;28;20211;-91
2023/07/08 00:02:53;;;;;;;10.55;5.65;;;;;;;-145.69;40.98;51810.72;5076196;28;20226;-90
2023/07/08 00:05:21;;;;;;;11.40;5.80;;;;;;;-145.69;40.83;51786.94;5075703;28;20203;-89
2023/07/08 00:07:49;;;;;;;9.98;5.47;;;;;;;-145.69;41.53;51828.53;5075446;28;20226;-90
2023/07/08 00:10:17;;;;;;;9.77;5.32;;;;;;;-145.69;41.41;51836.44;5075858;28;20654;-89
2023/07/08 00:12:55;;;;;;;11.10;5.55;;;;;;;-145.69;42.05;51846.34;5075402;28;20211;-92
2023/07/08 00:15:25;;;;;;;11.27;5.28;;;;;;;-145.69;41.82;51840.41;5074263;28;20202;-91
2023/07/08 00:17:51;;;;;;;9.68;5.57;;;;;;;-145.69;42.28;51810.72;5074442;28;20619;-91
2023/07/08 00:20:28;;;;;;;10.82;5.90;;;;;;;-145.69;42.21;51828.53;5075455;28;20202;-90
2023/07/08 00:23:13;;;;;;;15.32;5.55;;;;;;;-145.69;41.98;51806.75;5075476;28;20204;-90
2023/07/08 00:25:46;;;;;;;10.32;5.68;;;;;;;-145.69;42.00;51818.63;5074983;28;20234;-91
2023/07/08 00:28:21;;;;;;;12.18;5.68;;;;;;;-145.69;42.53;51846.34;5073864;28;20195;-91
2023/07/08 00:30:49;;;;;;;10.50;5.53;;;;;;;-145.69;42.80;51850.31;5075777;28;20219;-91
2023/07/08 00:33:17;;;;;;;14.77;6.53;;;;;;;-145.69;42.33;51822.59;5075291;28;20209;-91
2023/07/08 00:35:45;;;;;;;12.60;5.88;;;;;;;-145.69;43.14;51816.66;5075712;28;20227;-91
2023/07/08 00:38:20;;;;;;;11.05;5.35;;;;;;;-145.69;44.08;51850.31;5075550;28;20210;-91
2023/07/08 00:40:59;;;;;;;12.27;6.00;;;;;;;-145.69;44.45;51844.38;5075218;28;20202;-91
2023/07/08 00:43:36;;;;;;;11.57;5.47;;;;;;;-145.69;45.06;51848.34;5057407;28;20199;-90
2023/07/08 00:46:21;;;;;;;11.43;5.88;;;;;;;-145.69;44.39;51848.34;5075393;28;20202;-90
2023/07/08 00:48:53;;;;;;;13.43;6.30;;;;;;;-145.69;44.72;51824.56;5074414;28;20199;-89
2023/07/08 00:51:28;;;;;;;17.65;6.18;;;;;;;-145.69;44.11;51828.53;5074690;28;20234;-90
2023/07/08 00:53:57;;;;;;;10.60;5.30;;;;;;;-145.69;44.10;51840.41;5074906;28;20204;-89
2023/07/08 00:56:38;;;;;;;11.40;5.60;;;;;;;-145.69;42.97;51818.63;5074667;28;20207;-90
2023/07/08 00:59:11;;;;;;;11.38;6.10;;;;;;;-145.69;44.26;51834.47;5074324;28;20446;-91
2023/07/08 01:01:42;;;;;;;11.77;5.53;;;;;;;-145.69;44.41;51830.50;5074802;28;20301;-90
2023/07/08 01:04:15;;;;;;;13.18;5.45;;;;;;;-145.69;43.73;51832.50;5055120;28;20682;-89
2023/07/08 01:06:47;;;;;;;10.48;5.20;;;;;;;-145.69;43.81;51814.66;5054748;28;20203;-91
2023/07/08 01:09:17;;;;;;;10.77;5.75;;;;;;;-145.69;43.78;51806.75;5054471;28;20219;-90
2023/07/08 01:11:44;;;;;;;16.80;6.47;;;;;;;-145.69;43.35;51838.44;5069590;28;20209;-91
2023/07/08 01:14:18;;;;;;;15.43;5.43;;;;;;;-145.69;43.13;51832.50;5074817;28;20206;-90
2023/07/08 01:16:49;;;;;;;10.32;5.50;;;;;;;-145.69;43.97;51806.75;5073451;28;20206;-90
2023/07/08 01:19:32;;;;;;;12.77;5.45;;;;;;;-145.69;45.33;51838.44;5073979;28;20186;-90
2023/07/08 01:22:07;;;;;;;12.52;6.00;;;;;;;-145.69;45.02;51846.34;5074594;28;20194;-91
2023/07/08 01:24:37;;;;;;;10.23;5.40;;;;;;;-145.69;46.11;51842.38;5074514;28;20198;-90
2023/07/08 01:27:07;;;;;;;9.32;4.97;;;;;;;-145.69;44.74;51830.50;5070554;28;20226;-90
2023/07/08 01:29:34;;;;;;;11.00;5.30;;;;;;;-145.69;45.85;51862.19;5074084;28;20218;-90
2023/07/08 01:32:02;;;;;;;11.27;5.57;;;;;;;-145.69;45.93;51834.47;5074266;28;20202;-90
2023/07/08 01:34:32;;;;;;;11.15;5.50;;;;;;;-145.69;45.38;51814.66;5074160;28;20206;-90
2023/07/08 01:37:01;;;;;;;14.43;5.30;;;;;;;-145.69;44.20;51864.16;5074330;28;20222;-90
2023/07/08 01:39:30;;;;;;;9.90;4.63;;;;;;;-145.69;44.71;51848.34;5074111;28;20198;-91
2023/07/08 01:42:05;;;;;;;10.60;4.78;;;;;;;-145.69;44.59;51850.31;5073803;28;20204;-93
2023/07/08 01:44:35;;;;;;;12.75;5.45;;;;;;;-145.69;44.25;51846.34;5074395;28;20208;-91
2023/07/08 01:47:17;;;;;;;8.82;4.63;;;;;;;-145.69;44.50;51808.72;5074106;28;20202;-89
2023/07/08 01:49:48;;;;;;;10.52;5.60;;;;;;;-145.69;44.68;51818.63;5073703;28;20222;-91
2023/07/08 01:52:17;;;;;;;12.70;5.20;;;;;;;-145.69;45.07;51838.44;5074814;28;20256;-89
2023/07/08 01:54:46;;;;;;;11.88;5.50;;;;;;;-145.69;44.29;51834.47;5073933;28;20206;-90
2023/07/08 01:57:16;;;;;;;14.02;6.68;;;;;;;-145.69;44.14;51840.41;5074448;28;20290;-90
2023/07/08 01:59:42;;;;;;;13.65;5.40;;;;;;;-145.69;44.62;51842.38;5073575;28;20596;-90
2023/07/08 02:02:12;;;;;;;12.18;5.63;;;;;;;-145.69;44.07;51846.34;5074132;28;20717;-89
2023/07/08 02:04:39;;;;;;;10.68;5.70;;;;;;;-145.69;44.40;51826.56;5073544;28;20298;-90
2023/07/08 02:07:08;;;;;;;11.98;5.43;;;;;;;-145.69;45.10;51838.44;5073546;28;20195;-91
2023/07/08 02:09:48;;;;;;;14.38;4.90;;;;;;;-145.69;46.46;51834.47;5073575;28;20677;-90
2023/07/08 02:12:14;;;;;;;11.02;4.75;;;;;;;-145.69;45.59;51822.59;5073889;28;20286;-90
2023/07/08 02:14:44;;;;;;;8.48;4.60;;;;;;;-145.69;46.77;51860.22;5072743;28;20195;-89
2023/07/08 02:17:16;;;;;;;10.60;4.88;;;;;;;-145.69;45.72;51806.75;5074213;28;20210;-90
2023/07/08 02:19:45;;;;;;;10.55;5.05;;;;;;;-145.69;46.27;51830.50;5075550;28;20191;-89
2023/07/08 02:22:19;;;;;;;12.13;5.53;;;;;;;-145.69;46.82;51866.16;5077497;28;20649;-91
2023/07/08 02:24:56;;;;;;;10.90;5.30;;;;;;;-145.69;45.85;51846.34;5078039;28;20220;-91
2023/07/08 02:27:23;;;;;;;14.55;5.28;;;;;;;-145.69;45.46;51842.38;5078272;28;20216;-91
2023/07/08 02:29:52;;;;;;;10.55;4.72;;;;;;;-145.69;43.51;51862.19;5077211;28;20222;-91
2023/07/08 02:32:24;;;;;;;14.55;4.88;;;;;;;-145.69;44.73;51856.25;5077503;28;20230;-89
2023/07/08 02:34:52;;;;;;;11.13;4.72;;;;;;;-145.69;45.02;51838.44;5077162;28;20203;-89
2023/07/08 02:37:21;;;;;;;11.43;4.63;;;;;;;-145.69;45.60;51846.34;5077057;28;20198;-89
2023/07/08 02:39:51;;;;;;;10.27;4.30;;;;;;;-145.69;45.36;51826.56;5077338;28;20213;-90
2023/07/08 02:42:19;;;;;;;14.38;4.72;;;;;;;-145.69;45.85;51842.38;5075867;28;20199;-89
2023/07/08 02:44:45;;;;;;;9.00;4.18;;;;;;;-145.69;45.98;51812.69;5077140;28;20199;-90
2023/07/08 02:47:17;;;;;;;7.55;3.75;;;;;;;-145.69;44.96;51838.44;5077128;28;20203;-90
2023/07/08 02:49:46;;;;;;;9.73;3.70;;;;;;;-145.69;45.44;51846.34;5076878;28;20641;-89
2023/07/08 02:52:15;;;;;;;10.00;4.25;;;;;;;-145.69;45.56;51798.81;5077330;28;20210;-90
2023/07/08 02:54:45;;;;;;;7.38;3.47;;;;;;;-145.69;44.38;51838.44;5077122;28;20203;-89
2023/07/08 02:57:11;;;;;;;9.43;3.58;;;;;;;-145.69;44.53;51848.34;5076327;28;20205;-90
2023/07/08 02:59:39;;;;;;;11.18;3.40;;;;;;;-145.69;45.52;51830.50;5076416;28;20535;-90
2023/07/08 03:02:06;;;;;;;8.63;3.25;;;;;;;-145.69;45.48;51830.50;5076473;28;20558;-90
2023/07/08 03:04:35;;;;;;;9.57;3.67;;;;;;;-145.69;46.82;51834.47;5076734;28;20217;-90
2023/07/08 03:07:11;;;;;;;9.05;4.13;;;;;;;-145.69;49.00;51838.44;5076900;28;20222;-90
2023/07/08 03:09:42;;;;;;;8.93;4.35;;;;;;;-145.69;51.28;51844.38;5076491;28;20190;-90
2023/07/08 03:12:10;;;;;;;12.00;5.57;;;;;;;-145.69;56.94;51850.31;5076481;28;20203;-90
2023/07/08 03:14:40;;;;;;;10.95;5.25;;;;;;;-145.69;58.88;51862.19;5075631;28;20198;-90
2023/07/08 03:17:07;;;;;;;9.40;4.90;;;;;;;-145.69;60.25;51850.31;5076555;28;20208;-91
2023/07/08 03:19:34;;;;;;;11.30;4.90;;;;;;;-145.69;61.62;51860.22;5077435;28;20213;-91
2023/07/08 03:22:05;;;;;;;11.80;5.30;;;;;;;-145.69;59.50;51850.31;5064132;28;20206;-90
2023/07/08 03:24:34;;;;;;;8.68;4.68;;;;;;;-145.69;60.79;51870.13;5056705;28;20203;-91
2023/07/08 03:27:04;;;;;;;14.05;4.75;;;;;;;-145.69;62.67;51838.44;5065291;28;20198;-90
2023/07/08 03:29:38;;;;;;;9.10;4.07;;;;;;;-145.69;65.36;51864.16;5076401;28;20264;-90
2023/07/08 03:32:10;;;;;;;7.93;3.75;;;;;;;-145.69;60.57;51850.31;5076389;28;20203;-90
2023/07/08 03:34:39;;;;;;;7.57;3.53;;;;;;;-145.69;60.89;51874.06;5076600;28;20207;-91
2023/07/08 03:37:09;;;;;;;8.88;3.08;;;;;;;-145.69;61.49;51885.94;5076344;28;20190;-91
2023/07/08 03:39:39;;;;;;;9.80;4.32;;;;;;;-145.69;64.83;51858.22;5076573;28;20199;-91
2023/07/08 03:42:06;;;;;;;9.45;4.03;;;;;;;-145.69;66.53;51864.16;5075959;28;20253;-91
2023/07/08 03:44:33;;;;;;;7.53;3.60;;;;;;;-145.69;64.89;51862.19;5076277;28;20205;-91
2023/07/08 03:47:02;;;;;;;10.65;3.78;;;;;;;-145.69;65.69;51882.00;5075242;28;20198;-91
2023/07/08 03:49:32;;;;;;;9.52;4.03;;;;;;;-145.69;67.69;51866.16;5076014;28;20669;-90
2023/07/08 03:51:59;;;;;;;10.70;4.32;;;;;;;-145.69;66.82;51860.22;5075795;28;20230;-90
2023/07/08 03:54:26;;;;;;;8.43;4.00;;;;;;;-145.69;70.11;51911.69;5076138;28;20199;-90
2023/07/08 03:56:54;;;;;;;8.63;3.97;;;;;;;-145.69;66.96;51854.28;5075471;28;20272;-91
2023/07/08 03:59:24;;;;;;;7.97;3.50;;;;;;;-145.69;67.42;51880.00;5076398;28;20232;-90
2023/07/08 04:01:51;;;;;;;9.18;4.18;;;;;;;-145.69;64.42;51880.00;5076056;28;20707;-90
2023/07/08 04:04:22;;;;;;;9.38;4.50;;;;;;;-145.69;67.13;51864.16;5076048;28;20203;-91
2023/07/08 04:06:51;;;;;;;8.70;3.35;;;;;;;-145.69;69.59;51860.22;5075365;28;20223;-90
2023/07/08 04:09:18;;;;;;;11.27;3.33;;;;;;;-145.69;67.55;51860.22;5075827;28;20294;-90
2023/07/08 04:11:54;;;;;;;7.05;3.90;;;;;;;-145.69;67.35;51891.88;5075522;28;20231;-91
2023/07/08 04:14:20;;;;;;;9.98;4.70;;;;;;;-145.69;68.25;51862.19;5075762;28;20699;-91
2023/07/08 04:16:53;;;;;;;8.55;3.72;;;;;;;-145.69;66.79;51870.13;5075136;28;20226;-91
2023/07/08 04:19:20;;;;;;;9.47;3.90;;;;;;;-145.69;69.03;51856.25;5075499;28;20457;-90
2023/07/08 04:21:46;;;;;;;6.43;3.20;;;;;;;-145.69;71.39;51885.94;5076084;28;20785;-91
2023/07/08 04:24:29;;;;;;;7.47;3.00;;;;;;;-145.69;69.20;51889.91;5075138;28;20558;-90
2023/07/08 04:26:59;;;;;;;7.88;2.83;;;;;;;-145.69;66.16;51866.16;5074745;28;20198;-91
2023/07/08 04:29:29;;;;;;;7.10;3.55;;;;;;;-145.69;66.33;51866.16;5075174;28;20646;-91
2023/07/08 04:32:06;;;;;;;9.63;3.67;;;;;;;-145.69;69.15;51856.25;5075515;28;20219;-91
2023/07/08 04:34:48;;;;;;;8.27;3.58;;;;;;;-145.69;68.84;51889.91;5075133;28;20199;-91
2023/07/08 04:37:15;;;;;;;7.57;4.03;;;;;;;-145.69;70.28;51860.22;5074832;28;20203;-91
2023/07/08 04:39:44;;;;;;;5.28;3.05;;;;;;;-145.69;73.16;51828.53;5075685;28;20199;-91
2023/07/08 04:42:17;;;;;;;6.38;3.00;;;;;;;-145.69;76.26;51834.47;5074218;28;20234;-90
2023/07/08 04:44:44;;;;;;;7.18;3.38;;;;;;;-145.69;76.07;51870.13;5074511;28;20418;-90
2023/07/08 04:47:13;;;;;;;5.43;2.70;;;;;;;-145.69;73.02;51870.13;5074598;28;20199;-90
2023/07/08 04:49:43;;;;;;;7.53;2.90;;;;;;;-145.69;70.85;51850.31;5074709;28;20257;-90
2023/07/08 04:52:12;;;;;;;7.47;2.72;;;;;;;-145.69;73.13;51870.13;5074906;28;20313;-90
2023/07/08 04:54:41;;;;;;;7.68;3.22;;;;;;;-145.69;73.33;51846.34;5074576;28;20550;-90
2023/07/08 04:57:09;;;;;;;7.82;2.85;;;;;;;-145.69;74.91;51889.91;5074331;28;20206;-90
2023/07/08 04:59:37;;;;;;;9.10;3.20;;;;;;;-145.69;75.18;51866.16;5074635;28;20222;-91
2023/07/08 05:02:04;;;;;;;6.20;2.53;;;;;;;-145.69;69.36;51854.28;5074553;28;20203;-90
2023/07/08 05:04:30;;;;;;;5.50;3.08;;;;;;;-145.69;65.98;51885.94;5074283;28;20195;-90
2023/07/08 05:06:57;;;;;;;8.73;3.00;;;;;;;-145.69;61.17;51889.91;5074305;28;20210;-90
2023/07/08 05:09:25;;;;;;;6.97;2.72;;;;;;;-145.69;58.16;51872.09;5074597;28;20653;-91
2023/07/08 05:11:52;;;;;;;5.35;2.88;;;;;;;-145.69;62.04;51866.16;5060749;28;20223;-90
2023/07/08 05:14:20;;;;;;;4.35;2.67;;;;;;;-145.69;68.17;51846.34;5074329;28;20198;-90
2023/07/08 05:16:47;;;;;;;5.93;2.72;;;;;;;-145.69;58.63;51854.28;5074369;28;20561;-91
2023/07/08 05:19:14;;;;;;;5.20;2.60;;;;;;;-145.69;58.75;51860.22;5074868;28;20282;-90
2023/07/08 05:21:42;;;;;;;5.35;2.42;;;;;;;-145.69;59.01;51870.13;5074112;28;20205;-91
2023/07/08 05:24:09;;;;;;;6.05;2.30;;;;;;;-145.69;60.34;51846.34;5073936;28;20227;-90
2023/07/08 05:26:36;;;;;;;5.50;2.47;;;;;;;-145.69;62.86;51862.19;5074551;28;20302;-90
2023/07/08 05:29:07;;;;;;;5.97;2.80;;;;;;;-145.69;57.71;51856.25;5072558;28;20202;-90
2023/07/08 05:31:37;;;;;;;5.55;2.70;;;;;;;-145.69;63.22;51834.47;5072145;28;20218;-91
2023/07/08 05:34:06;;;;;;;5.30;2.33;;;;;;;-145.69;66.94;51870.13;5073951;28;20665;-91
2023/07/08 05:36:42;;;;;;;5.78;2.63;;;;;;;-145.69;59.74;51858.22;5073879;28;20209;-91
2023/07/08 05:39:09;;;;;;;7.00;2.45;;;;;;;-145.69;57.19;51866.16;5073577;28;20629;-91
2023/07/08 05:41:38;;;;;;;3.58;1.65;;;;;;;-145.69;53.32;51838.44;5074071;28;20625;-92
2023/07/08 05:44:06;;;;;;;6.63;1.70;;;;;;;-145.69;53.09;51826.56;5073900;28;20209;-90
2023/07/08 05:46:40;;;;;;;4.22;1.80;;;;;;;-145.69;53.18;51868.13;5072769;28;20207;-90
2023/07/08 05:49:06;;;;;;;6.13;2.13;;;;;;;-145.69;54.24;51858.22;5073983;28;20203;-91
2023/07/08 05:51:37;;;;;;;5.38;1.88;;;;;;;-145.69;52.35;51842.38;5072368;28;20239;-91
2023/07/08 05:54:04;;;;;;;9.57;1.80;;;;;;;-145.69;51.45;51826.56;5073357;28;20234;-89
2023/07/08 05:56:34;;;;;;;3.15;1.80;;;;;;;-145.69;51.91;51832.50;5074361;28;20660;-91
2023/07/08 05:59:00;;;;;;;6.63;1.60;;;;;;;-145.69;50.65;51856.25;5073743;28;20213;-88
2023/07/08 06:01:30;;;;;;;6.03;1.95;;;;;;;-145.69;51.73;51864.16;5073545;28;20720;-89
2023/07/08 06:04:04;;;;;;;2.90;1.67;;;;;;;-145.69;52.40;51834.47;5073952;28;20210;-89
2023/07/08 06:06:34;;;;;;;3.83;1.70;;;;;;;-145.69;52.19;51834.47;5073691;28;20198;-88
2023/07/08 06:09:04;;;;;;;5.68;1.88;;;;;;;-145.69;51.88;51862.19;5073595;28;20238;-90
2023/07/08 06:11:30;;;;;;;5.03;1.70;;;;;;;-145.69;52.46;51858.22;5073566;28;20219;-90
2023/07/08 06:14:07;;;;;;;4.85;1.70;;;;;;;-145.69;52.90;51866.16;5073372;28;20194;-89
2023/07/08 06:16:35;;;;;;;4.78;1.80;;;;;;;-145.69;54.43;51860.22;5073289;28;20268;-89
2023/07/08 06:19:03;;;;;;;4.18;1.80;;;;;;;-145.69;54.87;51826.56;5072558;28;20202;-90
2023/07/08 06:21:39;;;;;;;5.78;2.20;;;;;;;-145.69;55.57;51838.44;5072598;28;20439;-90
2023/07/08 06:24:06;;;;;;;5.38;2.03;;;;;;;-145.69;54.97;51834.47;5073097;28;20625;-89
2023/07/08 06:26:37;;;;;;;3.35;1.80;;;;;;;-145.69;61.11;51822.59;5073028;28;20266;-90
2023/07/08 06:29:04;;;;;;;7.05;1.60;;;;;;;-145.69;62.25;51854.28;5073264;28;20547;-89
2023/07/08 06:31:34;;;;;;;4.03;1.90;;;;;;;-145.69;58.78;51862.19;5073342;28;20218;-89
2023/07/08 06:34:04;;;;;;;3.63;1.65;;;;;;;-145.69;61.30;51830.50;5072943;28;20654;-90
2023/07/08 06:36:35;;;;;;;3.60;1.35;;;;;;;-145.69;61.60;51824.56;5073742;28;20199;-91
2023/07/08 06:39:01;;;;;;;3.65;1.50;;;;;;;-145.69;59.20;51818.63;5073710;28;20558;-91
2023/07/08 06:41:33;;;;;;;4.50;1.75;;;;;;;-145.69;60.66;51850.31;5074074;28;20213;-90
2023/07/08 06:44:00;;;;;;;2.33;1.33;;;;;;;-145.69;58.11;51824.56;5073508;28;20305;-90
2023/07/08 06:46:28;;;;;;;3.78;1.58;;;;;;;-145.69;58.76;51830.50;5073304;28;20195;-90
2023/07/08 06:48:55;;;;;;;3.67;1.38;;;;;;;-145.69;58.86;51830.50;5073184;28;20278;-91
2023/07/08 06:51:24;;;;;;;3.40;1.77;;;;;;;-145.69;64.94;51862.19;5072793;28;20661;-90
2023/07/08 06:53:51;;;;;;;3.17;1.48;;;;;;;-145.69;59.66;51852.28;5073313;28;20286;-89
2023/07/08 06:56:18;;;;;;;3.30;1.45;;;;;;;-145.69;62.56;51800.81;5073132;28;20199;-89
2023/07/08 06:58:44;;;;;;;3.20;1.30;;;;;;;-145.69;54.48;51828.53;5072290;28;20210;-89
2023/07/08 07:01:11;;;;;;;5.53;1.80;;;;;;;-145.69;58.09;51838.44;5072989;28;20302;-90
2023/07/08 07:03:38;;;;;;;5.55;2.13;;;;;;;-145.69;53.55;51828.53;5072935;28;20195;-90
2023/07/08 07:06:08;;;;;;;6.57;1.98;;;;;;;-145.69;57.58;51816.66;5074458;28;20195;-90
2023/07/08 07:08:49;;;;;;;4.03;1.67;;;;;;;-145.69;48.39;51814.66;5076404;28;20202;-90
2023/07/08 07:11:16;;;;;;;3.15;1.40;;;;;;;-145.69;54.26;51820.59;5076762;28;20314;-90
2023/07/08 07:13:45;;;;;;;3.00;1.48;;;;;;;-145.69;48.50;51858.22;5076020;28;20198;-87
2023/07/08 07:16:12;;;;;;;3.03;1.08;;;;;;;-145.69;52.48;51802.78;5076062;28;20198;-89
2023/07/08 07:18:38;;;;;;;3.92;1.10;;;;;;;-145.69;45.42;51816.66;5075748;28;20278;-90
2023/07/08 07:21:05;;;;;;;3.15;1.10;;;;;;;-145.69;47.57;51794.88;5076159;28;20199;-89
2023/07/08 07:23:31;;;;;;;3.72;1.42;;;;;;;-145.69;46.40;51802.78;5076261;28;20226;-89
2023/07/08 07:26:03;;;;;;;2.30;1.10;;;;;;;-145.69;44.90;51806.75;5076559;28;20527;-90
2023/07/08 07:28:29;;;;;;;1.75;1.05;;;;;;;-145.69;45.21;51812.69;5062847;28;20286;-89
2023/07/08 07:30:59;;;;;;;3.00;1.10;;;;;;;-145.69;45.23;51806.75;5056338;28;20657;-91
2023/07/08 07:33:32;;;;;;;4.45;1.33;;;;;;;-145.69;46.01;51786.94;5075781;28;20233;-92
2023/07/08 07:35:59;;;;;;;1.75;1.17;;;;;;;-145.69;46.41;51818.63;5076351;28;20198;-92
2023/07/08 07:38:35;;;;;;;3.47;1.10;;;;;;;-145.69;46.08;51798.81;5075901;28;20195;-90
2023/07/08 07:41:06;;;;;;;3.15;1.38;;;;;;;-145.69;44.56;51822.59;5076362;28;20610;-92
2023/07/08 07:43:32;;;;;;;5.65;1.58;;;;;;;-145.69;46.34;51798.81;5075897;28;20227;-94
2023/07/08 07:46:12;;;;;;;3.60;1.30;;;;;;;-145.69;47.76;51775.06;5076849;28;20205;-95
2023/07/08 07:48:42;;;;;;;3.97;1.63;;;;;;;-145.69;46.26;51788.94;5076390;28;20264;-94
2023/07/08 07:51:10;;;;;;;6.00;1.35;;;;;;;-145.69;47.16;51771.09;5075425;28;20230;-90
2023/07/08 07:53:37;;;;;;;2.92;1.40;;;;;;;-145.69;49.27;51751.31;5067527;28;20742;-88
2023/07/08 07:56:05;;;;;;;3.47;1.90;;;;;;;-145.69;48.92;51794.88;5056117;28;20203;-90
2023/07/08 07:58:32;;;;;;;3.15;1.20;;;;;;;-145.69;46.04;51794.88;5055640;28;20205;-89
2023/07/08 08:00:59;;;;;;;6.43;1.52;;;;;;;-145.69;45.46;51788.94;5055643;28;20226;-92
2023/07/08 08:03:26;;;;;;;6.57;1.63;;;;;;;-145.69;46.08;51810.72;5073706;28;20209;-90
2023/07/08 08:05:52;;;;;;;5.47;1.58;;;;;;;-145.69;47.12;51775.06;5075469;28;20237;-91
2023/07/08 08:08:22;;;;;;;3.85;1.55;;;;;;;-145.69;47.50;51786.94;5075233;28;20288;-90
2023/07/08 08:10:49;;;;;;;4.15;1.70;;;;;;;-145.69;48.50;51784.97;5075429;28;20578;-91
2023/07/08 08:13:17;;;;;;;3.10;1.60;;;;;;;-145.69;50.97;51779.03;5075259;28;20569;-88
2023/07/08 08:15:44;;;;;;;2.50;1.20;;;;;;;-145.69;48.62;51786.94;5075307;28;20256;-90
2023/07/08 08:18:11;;;;;;;4.63;1.30;;;;;;;-145.69;48.77;51775.06;5074685;28;20306;-88
2023/07/08 08:20:41;;;;;;;2.35;1.50;;;;;;;-145.69;48.01;51794.88;5075629;28;20222;-91
2023/07/08 08:23:07;;;;;;;3.30;1.75;;;;;;;-145.69;48.53;51767.16;5075101;28;20222;-89
2023/07/08 08:25:34;;;;;;;4.85;1.50;;;;;;;-145.69;49.10;51761.22;5075143;28;20254;-88
2023/07/08 08:28:02;;;;;;;3.05;1.35;;;;;;;-145.69;46.49;51763.19;5074867;28;20199;-84
2023/07/08 08:30:33;;;;;;;4.15;1.70;;;;;;;-145.69;47.49;51747.34;5074769;28;20202;-87
2023/07/08 08:33:04;;;;;;;3.65;1.80;;;;;;;-145.69;47.50;51755.25;5062378;28;20593;-88
2023/07/08 08:35:30;;;;;;;2.08;1.27;;;;;;;-145.69;41.05;51763.19;5069526;28;20697;-88
2023/07/08 08:37:57;;;;;;;3.67;1.30;;;;;;;-145.69;43.81;51755.25;5074691;28;20202;-86
2023/07/08 08:40:28;;;;;;;7.50;1.90;;;;;;;-145.69;42.60;51790.91;5074906;28;20198;-87
2023/07/08 08:43:03;;;;;;;3.92;1.10;;;;;;;-145.69;39.29;51751.31;5074734;28;20302;-90
2023/07/08 08:45:43;;;;;;;3.92;1.38;;;;;;;-145.69;39.44;51753.28;5074515;28;20669;-87
2023/07/08 08:48:25;;;;;;;3.65;1.20;;;;;;;-145.69;40.85;51751.31;5074814;28;20206;-90
2023/07/08 08:50:54;;;;;;;1.63;0.65;;;;;;;-145.69;40.09;51727.53;5074679;28;20222;-90
2023/07/08 08:53:23;;;;;;;2.38;0.80;;;;;;;-145.69;39.77;51759.22;5074372;28;20234;-88
2023/07/08 08:55:56;;;;;;;2.72;1.05;;;;;;;-145.69;38.17;51763.19;5074186;28;20198;-88
2023/07/08 08:58:31;;;;;;;1.25;0.95;;;;;;;-145.69;38.58;51735.47;5074813;28;20611;-88
2023/07/08 09:01:13;;;;;;;2.45;1.05;;;;;;;-145.69;39.35;51723.59;5074550;28;20202;-88
2023/07/08 09:03:47;;;;;;;2.47;1.02;;;;;;;-145.69;37.98;51741.41;5074343;28;20245;-88
2023/07/08 09:06:22;;;;;;;3.90;1.10;;;;;;;-145.69;37.99;51727.53;5074348;28;20217;-88
2023/07/08 09:08:50;;;;;;;2.33;1.15;;;;;;;-145.69;37.59;51715.66;5074237;28;20194;-89
2023/07/08 09:11:28;;;;;;;4.00;1.30;;;;;;;-145.69;37.99;51755.25;5074534;28;20271;-88
2023/07/08 09:13:55;;;;;;;4.82;1.30;;;;;;;-145.69;38.17;51737.44;5074259;28;20290;-89
2023/07/08 09:16:40;;;;;;;5.15;1.60;;;;;;;-145.69;38.79;51763.19;5074185;28;20195;-87
2023/07/08 09:19:10;;;;;;;3.55;1.27;;;;;;;-145.69;40.21;51769.13;5073924;28;20581;-87
2023/07/08 09:21:46;;;;;;;2.78;1.08;;;;;;;-145.69;38.24;51757.25;5073952;28;20207;-87
2023/07/08 09:24:19;;;;;;;5.13;1.40;;;;;;;-145.69;41.06;51767.16;5070934;28;20591;-87
2023/07/08 09:26:49;;;;;;;6.40;1.33;;;;;;;-145.69;39.69;51757.25;5073982;28;20202;-89
2023/07/08 09:29:15;;;;;;;2.47;1.30;;;;;;;-145.69;38.50;51739.44;5074474;28;20285;-87
2023/07/08 09:31:44;;;;;;;5.15;1.67;;;;;;;-145.69;37.80;51741.41;5074179;28;20198;-87
2023/07/08 09:34:13;;;;;;;1.65;1.30;;;;;;;-145.69;39.55;51743.38;5073750;28;20244;-88
2023/07/08 09:36:42;;;;;;;3.05;1.38;;;;;;;-145.69;40.57;51771.09;5073970;28;20198;-88
2023/07/08 09:39:14;;;;;;;2.58;1.30;;;;;;;-145.69;39.78;51759.22;5073791;28;20286;-88
2023/07/08 09:41:41;;;;;;;3.05;1.38;;;;;;;-145.69;38.55;51763.19;5073957;28;20206;-89
2023/07/08 09:44:21;;;;;;;8.40;1.60;;;;;;;-145.69;39.78;51759.22;5073656;28;20642;-91
2023/07/08 09:46:58;;;;;;;4.45;1.65;;;;;;;-145.69;40.04;51763.19;5073894;28;20569;-89
2023/07/08 09:49:33;;;;;;;3.65;1.50;;;;;;;-145.69;38.17;51790.91;5073301;28;20202;-86
2023/07/08 09:52:13;;;;;;;2.45;1.38;;;;;;;-145.69;38.68;51749.31;5073519;28;20238;-88
2023/07/08 09:54:48;;;;;;;2.50;1.30;;;;;;;-145.69;40.54;51755.25;5072350;28;20450;-92
2023/07/08 09:57:32;;;;;;;5.35;1.50;;;;;;;-145.69;38.95;51743.38;5073865;28;20198;-88
2023/07/08 10:00:02;;;;;;;4.13;1.40;;;;;;;-145.69;38.45;51753.28;5073687;28;20195;-89
2023/07/08 10:02:37;;;;;;;3.20;1.27;;;;;;;-145.69;39.60;51771.09;5074073;28;20199;-88
2023/07/08 10:05:13;;;;;;;3.00;1.00;;;;;;;-145.69;38.22;51751.31;5073341;28;20598;-89
2023/07/08 10:07:39;;;;;;;1.88;1.00;;;;;;;-145.69;40.29;51743.38;5073544;28;20637;-88
2023/07/08 10:10:11;;;;;;;1.42;1.00;;;;;;;-145.69;38.27;51715.66;5074030;28;20207;-88
2023/07/08 10:12:42;;;;;;;2.30;0.80;;;;;;;-145.69;38.09;51741.41;5073512;28;20228;-89
2023/07/08 10:15:17;;;;;;;2.63;0.90;;;;;;;-145.69;38.73;51743.38;5072879;28;20246;-90
2023/07/08 10:17:46;;;;;;;1.13;0.70;;;;;;;-145.69;37.12;51747.34;5073554;28;20226;-88
2023/07/08 10:20:13;;;;;;;1.70;0.85;;;;;;;-145.69;38.06;51709.72;5073544;28;20222;-89
2023/07/08 10:22:48;;;;;;;3.38;0.75;;;;;;;-145.69;38.14;51731.50;5073588;28;20210;-88
2023/07/08 10:25:29;;;;;;;1.98;1.02;;;;;;;-145.69;37.86;51741.41;5073420;28;20230;-87
2023/07/08 10:28:03;;;;;;;1.88;0.70;;;;;;;-145.69;36.43;51741.41;5073845;28;20249;-88
2023/07/08 10:30:33;;;;;;;1.60;0.70;;;;;;;-145.69;36.65;51723.59;5072856;28;20206;-86
2023/07/08 10:33:15;;;;;;;0.70;0.65;;;;;;;-145.69;37.23;51749.31;5072966;28;20226;-86
2023/07/08 10:35:51;;;;;;;1.83;0.82;;;;;;;-145.69;36.64;51759.22;5072946;28;20230;-87
2023/07/08 10:38:33;;;;;;;1.70;0.63;;;;;;;-145.69;37.46;51735.47;5073101;28;20202;-87
2023/07/08 10:41:03;;;;;;;2.45;0.93;;;;;;;-145.69;37.19;51737.44;5074080;28;20203;-89
2023/07/08 10:43:51;;;;;;;1.08;0.70;;;;;;;-145.69;37.87;51729.53;5077446;28;20195;-88
2023/07/08 10:46:25;;;;;;;2.88;1.30;;;;;;;-145.69;38.06;51733.50;5057298;28;20559;-90
2023/07/08 10:49:14;;;;;;;1.00;0.70;;;;;;;-145.69;36.77;51761.22;5070940;28;20202;-89
2023/07/08 10:51:52;;;;;;;4.88;1.05;;;;;;;-145.69;36.83;51757.25;5063932;28;20233;-88
2023/07/08 10:54:33;;;;;;;1.58;0.82;;;;;;;-145.69;38.71;51729.53;5076535;28;20218;-87
2023/07/08 10:57:14;;;;;;;1.00;0.80;;;;;;;-145.69;38.81;51751.31;5076904;28;20207;-88
2023/07/08 10:59:51;;;;;;;2.10;0.93;;;;;;;-145.69;36.33;51759.22;5076992;28;20213;-90
2023/07/08 11:02:41;;;;;;;2.45;1.02;;;;;;;-145.69;38.82;51737.44;5076405;28;20596;-90
2023/07/08 11:05:24;;;;;;;1.98;0.90;;;;;;;-145.69;39.86;51755.25;5067134;28;20198;-87
2023/07/08 11:07:56;;;;;;;1.92;0.80;;;;;;;-145.69;38.04;51721.59;5076594;28;20236;-88
2023/07/08 11:10:29;;;;;;;1.58;0.93;;;;;;;-145.69;36.92;51784.97;5076605;28;20209;-88
2023/07/08 11:13:04;;;;;;;3.10;1.50;;;;;;;-145.69;39.11;51735.47;5076637;28;20232;-86
2023/07/08 11:15:41;;;;;;;2.47;1.20;;;;;;;-145.69;37.39;51769.13;5074875;28;20202;-88
2023/07/08 11:18:15;;;;;;;3.08;1.00;;;;;;;-145.69;39.02;51775.06;5075932;28;20233;-87
2023/07/08 11:20:51;;;;;;;1.77;1.40;;;;;;;-145.69;40.67;51751.31;5076729;28;20202;-90
2023/07/08 11:23:26;;;;;;;3.35;1.30;;;;;;;-145.69;40.37;51783.00;5076363;28;20460;-91
2023/07/08 11:26:00;;;;;;;2.15;1.50;;;;;;;-145.69;38.75;51719.63;5075995;28;20198;-87
2023/07/08 11:28:27;;;;;;;4.63;1.60;;;;;;;-145.69;40.11;51743.38;5076425;28;20202;-89
2023/07/08 11:30:54;;;;;;;5.78;1.52;;;;;;;-145.69;41.24;51725.56;5070510;28;20227;-91